sensor_id;sensor_type;location;lat;lon;timestamp;P1;durP1;ratioP1;P2;durP2;ratioP2
56949;SDS011;74437;50.080;19.924;2024-02-14T00:01:08;30.38;;;12.30;;
56949;SDS011;74437;50.080;19.924;2024-02-14T00:06:03;23.15;;;11.65;;
56949;SDS011;74437;50.080;19.924;2024-02-14T00:08:29;28.75;;;12.80;;
56949;SDS011;74437;50.080;19.924;2024-02-14T00:10:55;27.00;;;12.90;;
56949;SDS011;74437;50.080;19.924;2024-02-14T00:13:20;28.55;;;13.00;;
56949;SDS011;74437;50.080;19.924;2024-02-14T00:15:46;30.95;;;13.65;;
56949;SDS011;74437;50.080;19.924;2024-02-14T00:18:11;32.50;;;13.60;;
56949;SDS011;74437;50.080;19.924;2024-02-14T00:20:37;26.30;;;12.52;;
56949;SDS011;74437;50.080;19.924;2024-02-14T00:23:04;27.95;;;14.02;;
56949;SDS011;74437;50.080;19.924;2024-02-14T00:25:29;36.92;;;13.13;;
56949;SDS011;74437;50.080;19.924;2024-02-14T00:27:55;32.42;;;13.88;;
56949;SDS011;74437;50.080;19.924;2024-02-14T00:30:20;30.63;;;13.30;;
56949;SDS011;74437;50.080;19.924;2024-02-14T00:32:48;32.57;;;14.97;;
56949;SDS011;74437;50.080;19.924;2024-02-14T00:35:13;32.30;;;14.50;;
56949;SDS011;74437;50.080;19.924;2024-02-14T00:37:39;35.85;;;14.45;;
56949;SDS011;74437;50.080;19.924;2024-02-14T00:40:04;30.02;;;14.85;;
56949;SDS011;74437;50.080;19.924;2024-02-14T00:42:30;33.42;;;15.38;;
56949;SDS011;74437;50.080;19.924;2024-02-14T00:44:56;32.97;;;15.68;;
56949;SDS011;74437;50.080;19.924;2024-02-14T00:47:21;33.58;;;15.75;;
56949;SDS011;74437;50.080;19.924;2024-02-14T00:49:47;35.20;;;14.73;;
56949;SDS011;74437;50.080;19.924;2024-02-14T00:52:12;35.63;;;16.23;;
56949;SDS011;74437;50.080;19.924;2024-02-14T00:54:37;34.72;;;16.70;;
56949;SDS011;74437;50.080;19.924;2024-02-14T00:57:03;32.60;;;15.27;;
56949;SDS011;74437;50.080;19.924;2024-02-14T00:59:28;36.97;;;17.02;;
56949;SDS011;74437;50.080;19.924;2024-02-14T01:01:54;33.60;;;16.02;;
56949;SDS011;74437;50.080;19.924;2024-02-14T01:04:19;34.22;;;15.50;;
56949;SDS011;74437;50.080;19.924;2024-02-14T01:06:44;32.15;;;16.00;;
56949;SDS011;74437;50.080;19.924;2024-02-14T01:09:10;31.38;;;15.02;;
56949;SDS011;74437;50.080;19.924;2024-02-14T01:11:35;33.92;;;15.57;;
56949;SDS011;74437;50.080;19.924;2024-02-14T01:14:03;39.60;;;16.13;;
56949;SDS011;74437;50.080;19.924;2024-02-14T01:16:29;34.28;;;16.45;;
56949;SDS011;74437;50.080;19.924;2024-02-14T01:18:54;37.25;;;17.25;;
56949;SDS011;74437;50.080;19.924;2024-02-14T01:21:19;33.53;;;16.63;;
56949;SDS011;74437;50.080;19.924;2024-02-14T01:23:45;33.83;;;17.05;;
56949;SDS011;74437;50.080;19.924;2024-02-14T01:26:10;37.50;;;17.73;;
56949;SDS011;74437;50.080;19.924;2024-02-14T01:28:35;37.70;;;17.92;;
56949;SDS011;74437;50.080;19.924;2024-02-14T01:31:01;35.63;;;17.55;;
56949;SDS011;74437;50.080;19.924;2024-02-14T01:33:26;38.47;;;17.95;;
56949;SDS011;74437;50.080;19.924;2024-02-14T01:35:52;40.28;;;17.65;;
56949;SDS011;74437;50.080;19.924;2024-02-14T01:38:17;40.88;;;18.20;;
56949;SDS011;74437;50.080;19.924;2024-02-14T01:40:43;38.03;;;19.17;;
56949;SDS011;74437;50.080;19.924;2024-02-14T01:43:09;44.10;;;19.77;;
56949;SDS011;74437;50.080;19.924;2024-02-14T01:45:35;43.90;;;20.33;;
56949;SDS011;74437;50.080;19.924;2024-02-14T01:48:01;42.97;;;20.67;;
56949;SDS011;74437;50.080;19.924;2024-02-14T01:50:27;43.85;;;20.83;;
56949;SDS011;74437;50.080;19.924;2024-02-14T01:52:57;40.95;;;20.52;;
56949;SDS011;74437;50.080;19.924;2024-02-14T01:55:24;50.88;;;21.00;;
56949;SDS011;74437;50.080;19.924;2024-02-14T01:57:52;45.05;;;20.67;;
56949;SDS011;74437;50.080;19.924;2024-02-14T02:00:18;43.05;;;21.13;;
56949;SDS011;74437;50.080;19.924;2024-02-14T02:02:44;43.03;;;20.48;;
56949;SDS011;74437;50.080;19.924;2024-02-14T02:05:11;44.58;;;20.55;;
56949;SDS011;74437;50.080;19.924;2024-02-14T02:07:36;40.17;;;19.45;;
56949;SDS011;74437;50.080;19.924;2024-02-14T02:10:05;45.55;;;21.42;;
56949;SDS011;74437;50.080;19.924;2024-02-14T02:12:31;42.13;;;20.42;;
56949;SDS011;74437;50.080;19.924;2024-02-14T02:14:57;46.08;;;20.10;;
56949;SDS011;74437;50.080;19.924;2024-02-14T02:17:23;43.80;;;21.30;;
56949;SDS011;74437;50.080;19.924;2024-02-14T02:19:49;47.22;;;21.75;;
56949;SDS011;74437;50.080;19.924;2024-02-14T02:22:14;47.33;;;20.80;;
56949;SDS011;74437;50.080;19.924;2024-02-14T02:24:40;41.47;;;19.85;;
56949;SDS011;74437;50.080;19.924;2024-02-14T02:27:05;47.15;;;21.10;;
56949;SDS011;74437;50.080;19.924;2024-02-14T02:29:31;45.45;;;21.65;;
56949;SDS011;74437;50.080;19.924;2024-02-14T02:31:57;46.15;;;21.50;;
56949;SDS011;74437;50.080;19.924;2024-02-14T02:34:23;45.90;;;22.05;;
56949;SDS011;74437;50.080;19.924;2024-02-14T02:36:48;44.72;;;21.65;;
56949;SDS011;74437;50.080;19.924;2024-02-14T02:39:15;45.08;;;20.88;;
56949;SDS011;74437;50.080;19.924;2024-02-14T02:41:41;43.67;;;20.85;;
56949;SDS011;74437;50.080;19.924;2024-02-14T02:44:06;44.75;;;20.38;;
56949;SDS011;74437;50.080;19.924;2024-02-14T02:46:31;46.65;;;21.58;;
56949;SDS011;74437;50.080;19.924;2024-02-14T02:48:57;43.60;;;22.15;;
56949;SDS011;74437;50.080;19.924;2024-02-14T02:51:23;45.70;;;21.20;;
56949;SDS011;74437;50.080;19.924;2024-02-14T02:53:49;42.53;;;19.98;;
56949;SDS011;74437;50.080;19.924;2024-02-14T02:56:17;48.00;;;22.10;;
56949;SDS011;74437;50.080;19.924;2024-02-14T02:58:42;44.40;;;21.08;;
56949;SDS011;74437;50.080;19.924;2024-02-14T03:01:09;47.47;;;21.92;;
56949;SDS011;74437;50.080;19.924;2024-02-14T03:03:35;43.55;;;21.27;;
56949;SDS011;74437;50.080;19.924;2024-02-14T03:06:01;47.83;;;20.52;;
56949;SDS011;74437;50.080;19.924;2024-02-14T03:08:28;47.92;;;22.27;;
56949;SDS011;74437;50.080;19.924;2024-02-14T03:10:55;39.75;;;20.75;;
56949;SDS011;74437;50.080;19.924;2024-02-14T03:13:24;43.97;;;20.77;;
56949;SDS011;74437;50.080;19.924;2024-02-14T03:15:49;49.08;;;21.70;;
56949;SDS011;74437;50.080;19.924;2024-02-14T03:18:15;40.60;;;19.40;;
56949;SDS011;74437;50.080;19.924;2024-02-14T03:20:40;45.22;;;19.90;;
56949;SDS011;74437;50.080;19.924;2024-02-14T03:23:06;46.67;;;20.52;;
56949;SDS011;74437;50.080;19.924;2024-02-14T03:25:31;37.90;;;18.27;;
56949;SDS011;74437;50.080;19.924;2024-02-14T03:27:56;38.22;;;20.35;;
56949;SDS011;74437;50.080;19.924;2024-02-14T03:30:23;44.70;;;20.38;;
56949;SDS011;74437;50.080;19.924;2024-02-14T03:32:49;44.90;;;21.42;;
56949;SDS011;74437;50.080;19.924;2024-02-14T03:35:15;40.38;;;20.33;;
56949;SDS011;74437;50.080;19.924;2024-02-14T03:37:41;45.97;;;20.05;;
56949;SDS011;74437;50.080;19.924;2024-02-14T03:40:08;42.42;;;19.55;;
56949;SDS011;74437;50.080;19.924;2024-02-14T03:42:34;49.92;;;20.80;;
56949;SDS011;74437;50.080;19.924;2024-02-14T03:45:00;45.88;;;19.80;;
56949;SDS011;74437;50.080;19.924;2024-02-14T03:47:30;44.97;;;20.02;;
56949;SDS011;74437;50.080;19.924;2024-02-14T03:49:59;43.78;;;20.30;;
56949;SDS011;74437;50.080;19.924;2024-02-14T03:52:25;43.30;;;20.58;;
56949;SDS011;74437;50.080;19.924;2024-02-14T03:54:50;47.75;;;21.38;;
56949;SDS011;74437;50.080;19.924;2024-02-14T03:57:16;48.05;;;21.23;;
56949;SDS011;74437;50.080;19.924;2024-02-14T03:59:42;47.15;;;21.17;;
56949;SDS011;74437;50.080;19.924;2024-02-14T04:02:08;47.80;;;21.05;;
56949;SDS011;74437;50.080;19.924;2024-02-14T04:04:35;43.58;;;21.73;;
56949;SDS011;74437;50.080;19.924;2024-02-14T04:07:02;39.90;;;19.92;;
56949;SDS011;74437;50.080;19.924;2024-02-14T04:09:27;46.60;;;21.15;;
56949;SDS011;74437;50.080;19.924;2024-02-14T04:11:53;46.70;;;21.30;;
56949;SDS011;74437;50.080;19.924;2024-02-14T04:14:18;44.22;;;21.95;;
56949;SDS011;74437;50.080;19.924;2024-02-14T04:16:43;49.03;;;22.00;;
56949;SDS011;74437;50.080;19.924;2024-02-14T04:19:09;47.40;;;21.15;;
56949;SDS011;74437;50.080;19.924;2024-02-14T04:21:36;46.58;;;22.42;;
56949;SDS011;74437;50.080;19.924;2024-02-14T04:24:02;42.65;;;21.95;;
56949;SDS011;74437;50.080;19.924;2024-02-14T04:26:28;50.83;;;22.17;;
56949;SDS011;74437;50.080;19.924;2024-02-14T04:28:53;45.97;;;22.92;;
56949;SDS011;74437;50.080;19.924;2024-02-14T04:31:19;40.92;;;20.90;;
56949;SDS011;74437;50.080;19.924;2024-02-14T04:33:44;50.88;;;23.60;;
56949;SDS011;74437;50.080;19.924;2024-02-14T04:36:14;49.15;;;22.77;;
56949;SDS011;74437;50.080;19.924;2024-02-14T04:38:39;46.42;;;22.35;;
56949;SDS011;74437;50.080;19.924;2024-02-14T04:41:05;56.10;;;24.38;;
56949;SDS011;74437;50.080;19.924;2024-02-14T04:43:31;49.60;;;22.90;;
56949;SDS011;74437;50.080;19.924;2024-02-14T04:45:56;58.25;;;24.77;;
56949;SDS011;74437;50.080;19.924;2024-02-14T04:48:21;50.80;;;23.20;;
56949;SDS011;74437;50.080;19.924;2024-02-14T04:50:47;51.88;;;23.10;;
56949;SDS011;74437;50.080;19.924;2024-02-14T04:53:12;47.78;;;23.10;;
56949;SDS011;74437;50.080;19.924;2024-02-14T04:55:37;52.67;;;24.65;;
56949;SDS011;74437;50.080;19.924;2024-02-14T04:58:03;52.25;;;23.33;;
56949;SDS011;74437;50.080;19.924;2024-02-14T05:00:30;52.75;;;24.55;;
56949;SDS011;74437;50.080;19.924;2024-02-14T05:02:55;46.58;;;23.63;;
56949;SDS011;74437;50.080;19.924;2024-02-14T05:05:22;57.03;;;25.55;;
56949;SDS011;74437;50.080;19.924;2024-02-14T05:07:47;57.38;;;25.10;;
56949;SDS011;74437;50.080;19.924;2024-02-14T05:10:12;58.83;;;25.80;;
56949;SDS011;74437;50.080;19.924;2024-02-14T05:12:39;54.47;;;25.20;;
56949;SDS011;74437;50.080;19.924;2024-02-14T05:15:05;58.25;;;25.85;;
56949;SDS011;74437;50.080;19.924;2024-02-14T05:17:30;61.10;;;26.92;;
56949;SDS011;74437;50.080;19.924;2024-02-14T05:19:56;56.75;;;26.40;;
56949;SDS011;74437;50.080;19.924;2024-02-14T05:22:21;58.80;;;26.40;;
56949;SDS011;74437;50.080;19.924;2024-02-14T05:24:47;57.55;;;26.38;;
56949;SDS011;74437;50.080;19.924;2024-02-14T05:27:13;60.85;;;27.30;;
56949;SDS011;74437;50.080;19.924;2024-02-14T05:29:38;56.42;;;27.05;;
56949;SDS011;74437;50.080;19.924;2024-02-14T05:32:04;51.55;;;25.05;;
56949;SDS011;74437;50.080;19.924;2024-02-14T05:34:29;66.97;;;27.27;;
56949;SDS011;74437;50.080;19.924;2024-02-14T05:36:55;51.53;;;25.85;;
56949;SDS011;74437;50.080;19.924;2024-02-14T05:39:21;53.70;;;25.73;;
56949;SDS011;74437;50.080;19.924;2024-02-14T05:41:47;57.47;;;27.10;;
56949;SDS011;74437;50.080;19.924;2024-02-14T05:44:14;58.53;;;26.70;;
56949;SDS011;74437;50.080;19.924;2024-02-14T05:46:39;56.28;;;25.38;;
56949;SDS011;74437;50.080;19.924;2024-02-14T05:49:04;66.28;;;29.92;;
56949;SDS011;74437;50.080;19.924;2024-02-14T05:51:31;58.03;;;27.00;;
56949;SDS011;74437;50.080;19.924;2024-02-14T05:53:56;67.28;;;29.25;;
56949;SDS011;74437;50.080;19.924;2024-02-14T05:56:22;58.17;;;28.92;;
56949;SDS011;74437;50.080;19.924;2024-02-14T05:58:47;66.35;;;29.40;;
56949;SDS011;74437;50.080;19.924;2024-02-14T06:01:12;60.88;;;27.50;;
56949;SDS011;74437;50.080;19.924;2024-02-14T06:03:38;64.88;;;27.92;;
56949;SDS011;74437;50.080;19.924;2024-02-14T06:06:03;64.18;;;28.02;;
56949;SDS011;74437;50.080;19.924;2024-02-14T06:08:28;78.93;;;30.60;;
56949;SDS011;74437;50.080;19.924;2024-02-14T06:10:54;62.47;;;29.05;;
56949;SDS011;74437;50.080;19.924;2024-02-14T06:13:19;61.72;;;28.38;;
56949;SDS011;74437;50.080;19.924;2024-02-14T06:15:44;67.47;;;29.77;;
56949;SDS011;74437;50.080;19.924;2024-02-14T06:18:10;60.15;;;28.30;;
56949;SDS011;74437;50.080;19.924;2024-02-14T06:20:36;61.88;;;27.73;;
56949;SDS011;74437;50.080;19.924;2024-02-14T06:23:01;62.60;;;27.52;;
56949;SDS011;74437;50.080;19.924;2024-02-14T06:25:26;62.58;;;29.08;;
56949;SDS011;74437;50.080;19.924;2024-02-14T06:27:52;63.53;;;28.42;;
56949;SDS011;74437;50.080;19.924;2024-02-14T06:30:19;62.50;;;27.92;;
56949;SDS011;74437;50.080;19.924;2024-02-14T06:32:44;65.05;;;28.75;;
56949;SDS011;74437;50.080;19.924;2024-02-14T06:35:10;66.70;;;30.55;;
56949;SDS011;74437;50.080;19.924;2024-02-14T06:37:35;59.85;;;29.33;;
56949;SDS011;74437;50.080;19.924;2024-02-14T06:40:00;67.85;;;29.75;;
56949;SDS011;74437;50.080;19.924;2024-02-14T06:42:26;65.80;;;29.65;;
56949;SDS011;74437;50.080;19.924;2024-02-14T06:44:51;78.20;;;30.42;;
56949;SDS011;74437;50.080;19.924;2024-02-14T06:47:17;62.28;;;28.55;;
56949;SDS011;74437;50.080;19.924;2024-02-14T06:49:43;70.57;;;29.85;;
56949;SDS011;74437;50.080;19.924;2024-02-14T06:52:08;65.40;;;29.63;;
56949;SDS011;74437;50.080;19.924;2024-02-14T06:54:33;64.90;;;28.98;;
56949;SDS011;74437;50.080;19.924;2024-02-14T06:56:59;60.78;;;27.88;;
56949;SDS011;74437;50.080;19.924;2024-02-14T06:59:25;59.92;;;28.95;;
56949;SDS011;74437;50.080;19.924;2024-02-14T07:01:51;59.10;;;27.90;;
56949;SDS011;74437;50.080;19.924;2024-02-14T07:04:19;55.75;;;26.30;;
56949;SDS011;74437;50.080;19.924;2024-02-14T07:06:50;56.47;;;27.13;;
56949;SDS011;74437;50.080;19.924;2024-02-14T07:09:16;59.58;;;27.13;;
56949;SDS011;74437;50.080;19.924;2024-02-14T07:11:42;54.42;;;25.10;;
56949;SDS011;74437;50.080;19.924;2024-02-14T07:14:07;52.55;;;23.92;;
56949;SDS011;74437;50.080;19.924;2024-02-14T07:16:33;43.45;;;22.85;;
56949;SDS011;74437;50.080;19.924;2024-02-14T07:18:58;45.92;;;22.08;;
56949;SDS011;74437;50.080;19.924;2024-02-14T07:21:23;40.45;;;20.90;;
56949;SDS011;74437;50.080;19.924;2024-02-14T07:23:49;40.88;;;20.40;;
56949;SDS011;74437;50.080;19.924;2024-02-14T07:26:15;36.53;;;18.75;;
56949;SDS011;74437;50.080;19.924;2024-02-14T07:28:40;36.30;;;19.15;;
56949;SDS011;74437;50.080;19.924;2024-02-14T07:31:06;38.85;;;18.00;;
56949;SDS011;74437;50.080;19.924;2024-02-14T07:33:31;34.97;;;18.23;;
56949;SDS011;74437;50.080;19.924;2024-02-14T07:35:57;39.78;;;18.45;;
56949;SDS011;74437;50.080;19.924;2024-02-14T07:38:22;34.65;;;18.58;;
56949;SDS011;74437;50.080;19.924;2024-02-14T07:40:48;33.80;;;18.63;;
56949;SDS011;74437;50.080;19.924;2024-02-14T07:43:13;39.22;;;18.98;;
56949;SDS011;74437;50.080;19.924;2024-02-14T07:45:39;38.00;;;19.50;;
56949;SDS011;74437;50.080;19.924;2024-02-14T07:48:04;45.20;;;23.85;;
56949;SDS011;74437;50.080;19.924;2024-02-14T07:50:31;46.75;;;20.48;;
56949;SDS011;74437;50.080;19.924;2024-02-14T07:52:57;32.33;;;18.27;;
56949;SDS011;74437;50.080;19.924;2024-02-14T07:55:23;36.45;;;19.10;;
56949;SDS011;74437;50.080;19.924;2024-02-14T07:57:49;38.00;;;19.58;;
56949;SDS011;74437;50.080;19.924;2024-02-14T08:00:14;52.03;;;20.40;;
56949;SDS011;74437;50.080;19.924;2024-02-14T08:02:47;37.15;;;18.58;;
56949;SDS011;74437;50.080;19.924;2024-02-14T08:05:15;38.33;;;19.05;;
56949;SDS011;74437;50.080;19.924;2024-02-14T08:07:41;37.88;;;19.55;;
56949;SDS011;74437;50.080;19.924;2024-02-14T08:10:06;34.90;;;18.70;;
56949;SDS011;74437;50.080;19.924;2024-02-14T08:12:32;34.17;;;17.45;;
56949;SDS011;74437;50.080;19.924;2024-02-14T08:14:58;31.05;;;17.23;;
56949;SDS011;74437;50.080;19.924;2024-02-14T08:17:28;28.15;;;16.75;;
56949;SDS011;74437;50.080;19.924;2024-02-14T08:19:54;26.30;;;15.98;;
56949;SDS011;74437;50.080;19.924;2024-02-14T08:22:19;27.95;;;15.18;;
56949;SDS011;74437;50.080;19.924;2024-02-14T08:24:45;26.50;;;13.15;;
56949;SDS011;74437;50.080;19.924;2024-02-14T08:27:11;24.05;;;13.00;;
56949;SDS011;74437;50.080;19.924;2024-02-14T08:29:36;26.48;;;14.15;;
56949;SDS011;74437;50.080;19.924;2024-02-14T08:32:02;28.75;;;14.05;;
56949;SDS011;74437;50.080;19.924;2024-02-14T08:34:28;21.60;;;13.48;;
56949;SDS011;74437;50.080;19.924;2024-02-14T08:36:54;23.23;;;12.82;;
56949;SDS011;74437;50.080;19.924;2024-02-14T08:39:19;22.05;;;12.48;;
56949;SDS011;74437;50.080;19.924;2024-02-14T08:41:45;26.02;;;12.68;;
56949;SDS011;74437;50.080;19.924;2024-02-14T08:44:12;23.60;;;13.03;;
56949;SDS011;74437;50.080;19.924;2024-02-14T08:46:40;24.02;;;12.82;;
56949;SDS011;74437;50.080;19.924;2024-02-14T08:49:07;22.42;;;12.38;;
56949;SDS011;74437;50.080;19.924;2024-02-14T08:51:36;22.05;;;13.13;;
56949;SDS011;74437;50.080;19.924;2024-02-14T08:54:02;25.02;;;13.18;;
56949;SDS011;74437;50.080;19.924;2024-02-14T08:56:33;21.52;;;12.50;;
56949;SDS011;74437;50.080;19.924;2024-02-14T08:59:00;24.13;;;13.38;;
56949;SDS011;74437;50.080;19.924;2024-02-14T09:01:26;22.93;;;12.00;;
56949;SDS011;74437;50.080;19.924;2024-02-14T09:03:51;18.67;;;12.20;;
56949;SDS011;74437;50.080;19.924;2024-02-14T09:08:23;24.55;;;13.88;;
56949;SDS011;74437;50.080;19.924;2024-02-14T09:10:49;22.38;;;12.60;;
56949;SDS011;74437;50.080;19.924;2024-02-14T09:13:17;21.52;;;12.05;;
56949;SDS011;74437;50.080;19.924;2024-02-14T09:15:43;21.80;;;9.43;;
56949;SDS011;74437;50.080;19.924;2024-02-14T09:18:08;18.10;;;9.98;;
56949;SDS011;74437;50.080;19.924;2024-02-14T09:20:34;19.52;;;10.40;;
56949;SDS011;74437;50.080;19.924;2024-02-14T09:22:59;14.10;;;6.70;;
56949;SDS011;74437;50.080;19.924;2024-02-14T09:25:25;15.50;;;7.43;;
56949;SDS011;74437;50.080;19.924;2024-02-14T09:27:50;13.50;;;7.70;;
56949;SDS011;74437;50.080;19.924;2024-02-14T09:30:16;5.70;;;3.42;;
56949;SDS011;74437;50.080;19.924;2024-02-14T09:32:43;9.05;;;5.30;;
56949;SDS011;74437;50.080;19.924;2024-02-14T09:35:09;6.50;;;3.90;;
56949;SDS011;74437;50.080;19.924;2024-02-14T09:37:35;4.00;;;2.25;;
56949;SDS011;74437;50.080;19.924;2024-02-14T09:40:03;5.85;;;2.83;;
56949;SDS011;74437;50.080;19.924;2024-02-14T09:42:38;3.53;;;1.85;;
56949;SDS011;74437;50.080;19.924;2024-02-14T09:45:14;5.75;;;2.35;;
56949;SDS011;74437;50.080;19.924;2024-02-14T09:47:40;5.15;;;3.10;;
56949;SDS011;74437;50.080;19.924;2024-02-14T09:50:06;4.93;;;3.28;;
56949;SDS011;74437;50.080;19.924;2024-02-14T09:52:33;5.25;;;2.75;;
56949;SDS011;74437;50.080;19.924;2024-02-14T09:55:00;8.95;;;3.00;;
56949;SDS011;74437;50.080;19.924;2024-02-14T09:57:28;6.45;;;2.78;;
56949;SDS011;74437;50.080;19.924;2024-02-14T09:59:54;9.15;;;3.25;;
56949;SDS011;74437;50.080;19.924;2024-02-14T10:02:21;8.43;;;3.85;;
56949;SDS011;74437;50.080;19.924;2024-02-14T10:04:47;6.32;;;3.63;;
56949;SDS011;74437;50.080;19.924;2024-02-14T10:07:12;6.75;;;3.42;;
56949;SDS011;74437;50.080;19.924;2024-02-14T10:09:41;3.63;;;1.38;;
56949;SDS011;74437;50.080;19.924;2024-02-14T10:12:07;3.45;;;1.70;;
56949;SDS011;74437;50.080;19.924;2024-02-14T10:14:36;7.78;;;3.20;;
56949;SDS011;74437;50.080;19.924;2024-02-14T10:17:03;7.40;;;3.72;;
56949;SDS011;74437;50.080;19.924;2024-02-14T10:19:29;6.03;;;3.13;;
56949;SDS011;74437;50.080;19.924;2024-02-14T10:21:55;6.47;;;3.60;;
56949;SDS011;74437;50.080;19.924;2024-02-14T10:24:26;6.60;;;3.45;;
56949;SDS011;74437;50.080;19.924;2024-02-14T10:26:52;6.97;;;3.43;;
56949;SDS011;74437;50.080;19.924;2024-02-14T10:29:19;7.85;;;3.50;;
56949;SDS011;74437;50.080;19.924;2024-02-14T10:31:45;6.05;;;3.60;;
56949;SDS011;74437;50.080;19.924;2024-02-14T10:34:10;6.25;;;3.42;;
56949;SDS011;74437;50.080;19.924;2024-02-14T10:36:37;7.72;;;3.67;;
56949;SDS011;74437;50.080;19.924;2024-02-14T10:39:05;7.15;;;3.22;;
56949;SDS011;74437;50.080;19.924;2024-02-14T10:41:32;6.63;;;2.65;;
56949;SDS011;74437;50.080;19.924;2024-02-14T10:46:31;3.28;;;2.40;;
56949;SDS011;74437;50.080;19.924;2024-02-14T10:49:01;5.97;;;2.85;;
56949;SDS011;74437;50.080;19.924;2024-02-14T10:51:31;5.00;;;2.53;;
56949;SDS011;74437;50.080;19.924;2024-02-14T10:54:01;4.38;;;2.58;;
56949;SDS011;74437;50.080;19.924;2024-02-14T10:56:31;4.95;;;3.05;;
56949;SDS011;74437;50.080;19.924;2024-02-14T10:58:57;7.10;;;3.20;;
56949;SDS011;74437;50.080;19.924;2024-02-14T11:01:24;5.82;;;2.70;;
56949;SDS011;74437;50.080;19.924;2024-02-14T11:03:52;4.70;;;2.70;;
56949;SDS011;74437;50.080;19.924;2024-02-14T11:06:18;4.25;;;2.50;;
56949;SDS011;74437;50.080;19.924;2024-02-14T11:09:02;4.72;;;2.80;;
56949;SDS011;74437;50.080;19.924;2024-02-14T11:11:33;6.35;;;2.47;;
56949;SDS011;74437;50.080;19.924;2024-02-14T11:13:59;8.77;;;3.10;;
56949;SDS011;74437;50.080;19.924;2024-02-14T11:16:25;4.55;;;2.30;;
56949;SDS011;74437;50.080;19.924;2024-02-14T11:18:53;4.35;;;2.42;;
56949;SDS011;74437;50.080;19.924;2024-02-14T11:21:42;5.45;;;2.75;;
56949;SDS011;74437;50.080;19.924;2024-02-14T11:24:10;4.53;;;2.60;;
56949;SDS011;74437;50.080;19.924;2024-02-14T11:26:40;5.57;;;2.33;;
56949;SDS011;74437;50.080;19.924;2024-02-14T11:29:15;4.00;;;2.30;;
56949;SDS011;74437;50.080;19.924;2024-02-14T11:31:44;4.35;;;2.15;;
56949;SDS011;74437;50.080;19.924;2024-02-14T11:34:13;7.30;;;2.72;;
56949;SDS011;74437;50.080;19.924;2024-02-14T11:36:42;4.28;;;2.40;;
56949;SDS011;74437;50.080;19.924;2024-02-14T11:39:09;5.32;;;2.50;;
56949;SDS011;74437;50.080;19.924;2024-02-14T11:41:37;4.38;;;2.40;;
56949;SDS011;74437;50.080;19.924;2024-02-14T11:44:05;5.60;;;2.35;;
56949;SDS011;74437;50.080;19.924;2024-02-14T11:46:35;3.67;;;2.38;;
56949;SDS011;74437;50.080;19.924;2024-02-14T11:49:05;4.43;;;2.38;;
56949;SDS011;74437;50.080;19.924;2024-02-14T11:51:31;4.55;;;2.72;;
56949;SDS011;74437;50.080;19.924;2024-02-14T11:53:58;4.63;;;2.58;;
56949;SDS011;74437;50.080;19.924;2024-02-14T11:56:30;6.32;;;2.85;;
56949;SDS011;74437;50.080;19.924;2024-02-14T11:58:59;6.60;;;3.03;;
56949;SDS011;74437;50.080;19.924;2024-02-14T12:01:27;6.15;;;2.85;;
56949;SDS011;74437;50.080;19.924;2024-02-14T12:03:54;6.05;;;2.75;;
56949;SDS011;74437;50.080;19.924;2024-02-14T12:06:19;5.03;;;2.60;;
56949;SDS011;74437;50.080;19.924;2024-02-14T12:08:45;5.32;;;2.65;;
56949;SDS011;74437;50.080;19.924;2024-02-14T12:11:10;4.82;;;2.53;;
56949;SDS011;74437;50.080;19.924;2024-02-14T12:13:36;5.63;;;2.92;;
56949;SDS011;74437;50.080;19.924;2024-02-14T12:16:03;7.15;;;2.40;;
56949;SDS011;74437;50.080;19.924;2024-02-14T12:18:28;3.20;;;1.98;;
56949;SDS011;74437;50.080;19.924;2024-02-14T12:21:03;4.70;;;1.90;;
56949;SDS011;74437;50.080;19.924;2024-02-14T12:23:32;2.72;;;1.77;;
56949;SDS011;74437;50.080;19.924;2024-02-14T12:26:02;7.40;;;2.05;;
56949;SDS011;74437;50.080;19.924;2024-02-14T12:28:29;4.30;;;1.90;;
56949;SDS011;74437;50.080;19.924;2024-02-14T12:30:56;4.00;;;2.10;;
56949;SDS011;74437;50.080;19.924;2024-02-14T12:33:23;4.28;;;2.15;;
56949;SDS011;74437;50.080;19.924;2024-02-14T12:35:50;5.38;;;2.42;;
56949;SDS011;74437;50.080;19.924;2024-02-14T12:38:17;10.32;;;2.55;;
56949;SDS011;74437;50.080;19.924;2024-02-14T12:40:43;6.68;;;3.58;;
56949;SDS011;74437;50.080;19.924;2024-02-14T12:43:09;5.35;;;3.00;;
56949;SDS011;74437;50.080;19.924;2024-02-14T12:45:36;6.10;;;2.80;;
56949;SDS011;74437;50.080;19.924;2024-02-14T12:48:02;5.63;;;2.70;;
56949;SDS011;74437;50.080;19.924;2024-02-14T12:50:27;6.78;;;2.58;;
56949;SDS011;74437;50.080;19.924;2024-02-14T12:52:53;4.57;;;2.63;;
56949;SDS011;74437;50.080;19.924;2024-02-14T12:55:18;5.78;;;2.40;;
56949;SDS011;74437;50.080;19.924;2024-02-14T12:57:44;5.40;;;2.70;;
56949;SDS011;74437;50.080;19.924;2024-02-14T13:00:13;5.85;;;2.80;;
56949;SDS011;74437;50.080;19.924;2024-02-14T13:02:39;5.25;;;2.67;;
56949;SDS011;74437;50.080;19.924;2024-02-14T13:05:05;8.15;;;3.28;;
56949;SDS011;74437;50.080;19.924;2024-02-14T13:07:32;7.32;;;3.10;;
56949;SDS011;74437;50.080;19.924;2024-02-14T13:09:58;6.63;;;3.20;;
56949;SDS011;74437;50.080;19.924;2024-02-14T13:12:23;8.23;;;3.60;;
56949;SDS011;74437;50.080;19.924;2024-02-14T13:14:48;6.50;;;3.25;;
56949;SDS011;74437;50.080;19.924;2024-02-14T13:17:19;6.22;;;3.35;;
56949;SDS011;74437;50.080;19.924;2024-02-14T13:20:05;6.15;;;3.22;;
56949;SDS011;74437;50.080;19.924;2024-02-14T13:22:33;5.35;;;2.63;;
56949;SDS011;74437;50.080;19.924;2024-02-14T13:24:58;6.10;;;2.78;;
56949;SDS011;74437;50.080;19.924;2024-02-14T13:27:25;4.50;;;2.60;;
56949;SDS011;74437;50.080;19.924;2024-02-14T13:29:51;5.45;;;2.70;;
56949;SDS011;74437;50.080;19.924;2024-02-14T13:32:17;4.30;;;2.60;;
56949;SDS011;74437;50.080;19.924;2024-02-14T13:34:42;8.45;;;4.75;;
56949;SDS011;74437;50.080;19.924;2024-02-14T13:37:08;5.82;;;2.85;;
56949;SDS011;74437;50.080;19.924;2024-02-14T13:39:34;4.07;;;2.58;;
56949;SDS011;74437;50.080;19.924;2024-02-14T13:41:59;4.60;;;2.42;;
56949;SDS011;74437;50.080;19.924;2024-02-14T13:44:26;5.30;;;3.20;;
56949;SDS011;74437;50.080;19.924;2024-02-14T13:46:51;5.82;;;3.15;;
56949;SDS011;74437;50.080;19.924;2024-02-14T13:49:17;7.07;;;3.10;;
56949;SDS011;74437;50.080;19.924;2024-02-14T13:51:50;3.67;;;2.63;;
56949;SDS011;74437;50.080;19.924;2024-02-14T13:54:18;6.20;;;3.05;;
56949;SDS011;74437;50.080;19.924;2024-02-14T13:56:50;6.50;;;3.50;;
56949;SDS011;74437;50.080;19.924;2024-02-14T13:59:17;7.43;;;3.13;;
56949;SDS011;74437;50.080;19.924;2024-02-14T14:01:43;6.13;;;3.22;;
56949;SDS011;74437;50.080;19.924;2024-02-14T14:04:10;8.43;;;3.27;;
56949;SDS011;74437;50.080;19.924;2024-02-14T14:06:36;6.72;;;3.58;;
56949;SDS011;74437;50.080;19.924;2024-02-14T14:09:01;6.45;;;3.42;;
56949;SDS011;74437;50.080;19.924;2024-02-14T14:11:32;7.40;;;3.70;;
56949;SDS011;74437;50.080;19.924;2024-02-14T14:13:58;7.78;;;3.65;;
56949;SDS011;74437;50.080;19.924;2024-02-14T14:16:24;8.40;;;4.18;;
56949;SDS011;74437;50.080;19.924;2024-02-14T14:18:50;7.35;;;3.78;;
56949;SDS011;74437;50.080;19.924;2024-02-14T14:21:15;9.13;;;3.50;;